sensor_id;sensor_type;location;lat;lon;timestamp;temperature;humidity
31765;DHT22;18338;53.240;8.798;2023-02-21T00:01:44;10.10;99.90
31765;DHT22;18338;53.240;8.798;2023-02-21T00:04:29;10.10;99.90
31765;DHT22;18338;53.240;8.798;2023-02-21T00:07:14;10.10;99.90
31765;DHT22;18338;53.240;8.798;2023-02-21T00:10:00;10.10;99.90
31765;DHT22;18338;53.240;8.798;2023-02-21T00:12:46;10.10;99.90
31765;DHT22;18338;53.240;8.798;2023-02-21T00:15:31;10.10;99.90
31765;DHT22;18338;53.240;8.798;2023-02-21T00:18:16;10.10;99.90
31765;DHT22;18338;53.240;8.798;2023-02-21T00:21:02;10.10;99.90
31765;DHT22;18338;53.240;8.798;2023-02-21T00:23:47;10.10;99.90
31765;DHT22;18338;53.240;8.798;2023-02-21T00:26:33;10.10;99.90
31765;DHT22;18338;53.240;8.798;2023-02-21T00:29:18;10.10;99.90
31765;DHT22;18338;53.240;8.798;2023-02-21T00:32:04;10.10;99.90
31765;DHT22;18338;53.240;8.798;2023-02-21T00:34:49;10.10;99.90
31765;DHT22;18338;53.240;8.798;2023-02-21T00:37:35;10.10;99.90
31765;DHT22;18338;53.240;8.798;2023-02-21T00:40:20;10.10;99.90
31765;DHT22;18338;53.240;8.798;2023-02-21T00:43:06;10.10;99.90
31765;DHT22;18338;53.240;8.798;2023-02-21T00:45:51;10.10;99.90
31765;DHT22;18338;53.240;8.798;2023-02-21T00:48:37;10.10;99.90
31765;DHT22;18338;53.240;8.798;2023-02-21T00:51:22;10.10;99.90
31765;DHT22;18338;53.240;8.798;2023-02-21T00:54:08;10.10;99.90
31765;DHT22;18338;53.240;8.798;2023-02-21T00:56:53;10.10;99.90
31765;DHT22;18338;53.240;8.798;2023-02-21T00:59:38;10.00;99.90
31765;DHT22;18338;53.240;8.798;2023-02-21T01:02:24;10.00;99.90
31765;DHT22;18338;53.240;8.798;2023-02-21T01:05:09;10.00;99.90
31765;DHT22;18338;53.240;8.798;2023-02-21T01:07:55;10.00;99.90
31765;DHT22;18338;53.240;8.798;2023-02-21T01:10:41;10.00;99.90
31765;DHT22;18338;53.240;8.798;2023-02-21T01:13:26;10.00;99.90
31765;DHT22;18338;53.240;8.798;2023-02-21T01:16:12;10.00;99.90
31765;DHT22;18338;53.240;8.798;2023-02-21T01:18:57;10.00;99.90
31765;DHT22;18338;53.240;8.798;2023-02-21T01:21:42;10.00;99.90
31765;DHT22;18338;53.240;8.798;2023-02-21T01:24:28;10.00;99.90
31765;DHT22;18338;53.240;8.798;2023-02-21T01:27:14;10.00;99.90
31765;DHT22;18338;53.240;8.798;2023-02-21T01:29:59;10.00;99.90
31765;DHT22;18338;53.240;8.798;2023-02-21T01:32:45;10.00;99.90
31765;DHT22;18338;53.240;8.798;2023-02-21T01:35:31;9.90;99.90
31765;DHT22;18338;53.240;8.798;2023-02-21T01:38:17;9.90;99.90
31765;DHT22;18338;53.240;8.798;2023-02-21T01:41:03;9.90;99.90
31765;DHT22;18338;53.240;8.798;2023-02-21T01:44:04;9.90;99.90
31765;DHT22;18338;53.240;8.798;2023-02-21T01:46:50;9.90;99.90
31765;DHT22;18338;53.240;8.798;2023-02-21T01:49:38;9.90;99.90
31765;DHT22;18338;53.240;8.798;2023-02-21T01:52:24;9.90;99.90
31765;DHT22;18338;53.240;8.798;2023-02-21T01:55:10;9.90;99.90
31765;DHT22;18338;53.240;8.798;2023-02-21T01:57:56;9.90;99.90
31765;DHT22;18338;53.240;8.798;2023-02-21T02:00:43;9.90;99.90
31765;DHT22;18338;53.240;8.798;2023-02-21T02:03:29;9.90;99.90
31765;DHT22;18338;53.240;8.798;2023-02-21T02:06:15;9.90;99.90
31765;DHT22;18338;53.240;8.798;2023-02-21T02:09:18;9.90;99.90
31765;DHT22;18338;53.240;8.798;2023-02-21T02:12:28;9.90;99.90
31765;DHT22;18338;53.240;8.798;2023-02-21T02:15:13;9.90;99.90
31765;DHT22;18338;53.240;8.798;2023-02-21T02:29:51;9.90;99.90
31765;DHT22;18338;53.240;8.798;2023-02-21T02:38:16;9.90;99.90
31765;DHT22;18338;53.240;8.798;2023-02-21T02:41:03;9.90;99.90
31765;DHT22;18338;53.240;8.798;2023-02-21T02:43:34;9.90;99.90
31765;DHT22;18338;53.240;8.798;2023-02-21T02:46:16;9.90;99.90
31765;DHT22;18338;53.240;8.798;2023-02-21T02:49:07;9.90;99.90
31765;DHT22;18338;53.240;8.798;2023-02-21T02:51:35;9.90;99.90
31765;DHT22;18338;53.240;8.798;2023-02-21T02:54:03;9.90;99.90
31765;DHT22;18338;53.240;8.798;2023-02-21T02:56:30;9.90;99.90
31765;DHT22;18338;53.240;8.798;2023-02-21T02:59:10;9.90;99.90
31765;DHT22;18338;53.240;8.798;2023-02-21T03:01:58;9.90;99.90
31765;DHT22;18338;53.240;8.798;2023-02-21T03:10:09;9.90;99.90
31765;DHT22;18338;53.240;8.798;2023-02-21T03:13:03;9.90;99.90
31765;DHT22;18338;53.240;8.798;2023-02-21T03:15:32;9.90;99.90
31765;DHT22;18338;53.240;8.798;2023-02-21T03:18:11;9.90;99.90
31765;DHT22;18338;53.240;8.798;2023-02-21T03:20:40;9.90;99.90
31765;DHT22;18338;53.240;8.798;2023-02-21T03:23:11;9.90;99.90
31765;DHT22;18338;53.240;8.798;2023-02-21T03:25:40;9.90;99.90
31765;DHT22;18338;53.240;8.798;2023-02-21T03:28:08;9.80;99.90
31765;DHT22;18338;53.240;8.798;2023-02-21T03:30:34;9.90;99.90
31765;DHT22;18338;53.240;8.798;2023-02-21T03:33:02;9.90;99.90
31765;DHT22;18338;53.240;8.798;2023-02-21T03:35:29;9.90;99.90
31765;DHT22;18338;53.240;8.798;2023-02-21T03:37:57;9.90;99.90
31765;DHT22;18338;53.240;8.798;2023-02-21T03:40:28;9.90;99.90
31765;DHT22;18338;53.240;8.798;2023-02-21T03:42:57;9.90;99.90
31765;DHT22;18338;53.240;8.798;2023-02-21T03:45:25;9.90;99.90
31765;DHT22;18338;53.240;8.798;2023-02-21T03:47:52;9.90;99.90
31765;DHT22;18338;53.240;8.798;2023-02-21T03:50:19;9.90;99.90
31765;DHT22;18338;53.240;8.798;2023-02-21T03:52:46;9.90;99.90
31765;DHT22;18338;53.240;8.798;2023-02-21T03:55:14;9.90;99.90
31765;DHT22;18338;53.240;8.798;2023-02-21T03:57:41;9.90;99.90
31765;DHT22;18338;53.240;8.798;2023-02-21T04:00:09;9.90;99.90
31765;DHT22;18338;53.240;8.798;2023-02-21T04:02:36;9.90;99.90
31765;DHT22;18338;53.240;8.798;2023-02-21T04:05:04;9.90;99.90
31765;DHT22;18338;53.240;8.798;2023-02-21T04:07:31;9.90;99.90
31765;DHT22;18338;53.240;8.798;2023-02-21T04:09:58;9.90;99.90
31765;DHT22;18338;53.240;8.798;2023-02-21T04:12:25;9.90;99.90
31765;DHT22;18338;53.240;8.798;2023-02-21T04:14:53;9.90;99.90
31765;DHT22;18338;53.240;8.798;2023-02-21T04:17:22;9.90;99.90
31765;DHT22;18338;53.240;8.798;2023-02-21T04:19:48;9.90;99.90
31765;DHT22;18338;53.240;8.798;2023-02-21T04:22:15;9.90;99.90
31765;DHT22;18338;53.240;8.798;2023-02-21T04:24:43;9.80;99.90
31765;DHT22;18338;53.240;8.798;2023-02-21T04:27:09;9.90;99.90
31765;DHT22;18338;53.240;8.798;2023-02-21T04:29:36;9.80;99.90
31765;DHT22;18338;53.240;8.798;2023-02-21T04:32:03;9.90;99.90
31765;DHT22;18338;53.240;8.798;2023-02-21T04:34:30;9.80;99.90
31765;DHT22;18338;53.240;8.798;2023-02-21T04:36:57;9.80;99.90
31765;DHT22;18338;53.240;8.798;2023-02-21T04:39:24;9.80;99.90
31765;DHT22;18338;53.240;8.798;2023-02-21T04:41:50;9.80;99.90
31765;DHT22;18338;53.240;8.798;2023-02-21T04:44:17;9.80;99.90
31765;DHT22;18338;53.240;8.798;2023-02-21T04:46:44;9.80;99.90
31765;DHT22;18338;53.240;8.798;2023-02-21T04:49:12;9.80;99.90
31765;DHT22;18338;53.240;8.798;2023-02-21T04:51:39;9.80;99.90
31765;DHT22;18338;53.240;8.798;2023-02-21T04:54:06;9.80;99.90
31765;DHT22;18338;53.240;8.798;2023-02-21T04:56:33;9.80;99.90
31765;DHT22;18338;53.240;8.798;2023-02-21T04:59:00;9.80;99.90
31765;DHT22;18338;53.240;8.798;2023-02-21T05:01:28;9.80;99.90
31765;DHT22;18338;53.240;8.798;2023-02-21T05:03:58;9.80;99.90
31765;DHT22;18338;53.240;8.798;2023-02-21T05:06:27;9.80;99.90
31765;DHT22;18338;53.240;8.798;2023-02-21T05:08:54;9.80;99.90
31765;DHT22;18338;53.240;8.798;2023-02-21T05:11:21;9.80;99.90
31765;DHT22;18338;53.240;8.798;2023-02-21T05:13:48;9.80;99.90
31765;DHT22;18338;53.240;8.798;2023-02-21T05:16:17;9.80;99.90
31765;DHT22;18338;53.240;8.798;2023-02-21T05:18:45;9.80;99.90
31765;DHT22;18338;53.240;8.798;2023-02-21T05:21:13;9.80;99.90
31765;DHT22;18338;53.240;8.798;2023-02-21T05:23:41;9.80;99.90
31765;DHT22;18338;53.240;8.798;2023-02-21T05:26:26;9.80;99.90
31765;DHT22;18338;53.240;8.798;2023-02-21T05:28:56;9.80;99.90
31765;DHT22;18338;53.240;8.798;2023-02-21T05:31:23;9.70;99.90
31765;DHT22;18338;53.240;8.798;2023-02-21T05:33:51;9.70;99.90
31765;DHT22;18338;53.240;8.798;2023-02-21T05:36:17;9.70;99.90
31765;DHT22;18338;53.240;8.798;2023-02-21T05:38:49;9.80;99.90
31765;DHT22;18338;53.240;8.798;2023-02-21T05:41:17;9.70;99.90
31765;DHT22;18338;53.240;8.798;2023-02-21T05:43:45;9.70;99.90
31765;DHT22;18338;53.240;8.798;2023-02-21T05:46:29;9.70;99.90
31765;DHT22;18338;53.240;8.798;2023-02-21T05:48:58;9.70;99.90
31765;DHT22;18338;53.240;8.798;2023-02-21T05:51:25;9.70;99.90
31765;DHT22;18338;53.240;8.798;2023-02-21T05:53:53;9.70;99.90
31765;DHT22;18338;53.240;8.798;2023-02-21T05:56:20;9.70;99.90
31765;DHT22;18338;53.240;8.798;2023-02-21T05:58:47;9.70;99.90
31765;DHT22;18338;53.240;8.798;2023-02-21T06:01:14;9.70;99.90
31765;DHT22;18338;53.240;8.798;2023-02-21T06:03:41;9.70;99.90
31765;DHT22;18338;53.240;8.798;2023-02-21T06:06:09;9.70;99.90
31765;DHT22;18338;53.240;8.798;2023-02-21T06:08:47;9.70;99.90
31765;DHT22;18338;53.240;8.798;2023-02-21T06:11:15;9.70;99.90
31765;DHT22;18338;53.240;8.798;2023-02-21T06:13:42;9.70;99.90
31765;DHT22;18338;53.240;8.798;2023-02-21T06:16:12;9.70;99.90
31765;DHT22;18338;53.240;8.798;2023-02-21T06:18:39;9.70;99.90
31765;DHT22;18338;53.240;8.798;2023-02-21T06:21:06;9.70;99.90
31765;DHT22;18338;53.240;8.798;2023-02-21T06:23:35;9.70;99.90
31765;DHT22;18338;53.240;8.798;2023-02-21T06:26:01;9.70;99.90
31765;DHT22;18338;53.240;8.798;2023-02-21T06:28:29;9.70;99.90
31765;DHT22;18338;53.240;8.798;2023-02-21T06:30:56;9.60;99.90
31765;DHT22;18338;53.240;8.798;2023-02-21T06:33:24;9.70;99.90
31765;DHT22;18338;53.240;8.798;2023-02-21T06:35:51;9.70;99.90
31765;DHT22;18338;53.240;8.798;2023-02-21T06:38:18;9.60;99.90
31765;DHT22;18338;53.240;8.798;2023-02-21T06:40:47;9.70;99.90
31765;DHT22;18338;53.240;8.798;2023-02-21T06:43:14;9.60;99.90
31765;DHT22;18338;53.240;8.798;2023-02-21T06:45:41;9.60;99.90
31765;DHT22;18338;53.240;8.798;2023-02-21T06:48:12;9.60;99.90
31765;DHT22;18338;53.240;8.798;2023-02-21T06:50:41;9.60;99.90
31765;DHT22;18338;53.240;8.798;2023-02-21T06:53:09;9.60;99.90
31765;DHT22;18338;53.240;8.798;2023-02-21T06:55:36;9.70;99.90
31765;DHT22;18338;53.240;8.798;2023-02-21T06:58:04;9.60;99.90
31765;DHT22;18338;53.240;8.798;2023-02-21T07:00:34;9.60;99.90
31765;DHT22;18338;53.240;8.798;2023-02-21T07:03:02;9.60;99.90
31765;DHT22;18338;53.240;8.798;2023-02-21T07:05:30;9.70;99.90
31765;DHT22;18338;53.240;8.798;2023-02-21T07:08:01;9.70;99.90
31765;DHT22;18338;53.240;8.798;2023-02-21T07:10:28;9.70;99.90
31765;DHT22;18338;53.240;8.798;2023-02-21T07:12:55;9.70;99.90
31765;DHT22;18338;53.240;8.798;2023-02-21T07:15:22;9.70;99.90
31765;DHT22;18338;53.240;8.798;2023-02-21T07:17:49;9.60;99.90
31765;DHT22;18338;53.240;8.798;2023-02-21T07:20:16;9.60;99.90
31765;DHT22;18338;53.240;8.798;2023-02-21T07:22:42;9.70;99.90
31765;DHT22;18338;53.240;8.798;2023-02-21T07:25:14;9.60;99.90
31765;DHT22;18338;53.240;8.798;2023-02-21T07:27:42;9.60;99.90
31765;DHT22;18338;53.240;8.798;2023-02-21T07:30:10;9.60;99.90
31765;DHT22;18338;53.240;8.798;2023-02-21T07:32:37;9.70;99.90
31765;DHT22;18338;53.240;8.798;2023-02-21T07:35:04;9.70;99.90
31765;DHT22;18338;53.240;8.798;2023-02-21T07:37:30;9.70;99.90
31765;DHT22;18338;53.240;8.798;2023-02-21T07:39:57;9.70;99.90
31765;DHT22;18338;53.240;8.798;2023-02-21T07:42:24;9.70;99.90
31765;DHT22;18338;53.240;8.798;2023-02-21T07:44:55;9.70;99.90
31765;DHT22;18338;53.240;8.798;2023-02-21T07:47:24;9.70;99.90
31765;DHT22;18338;53.240;8.798;2023-02-21T07:49:52;9.70;99.90
31765;DHT22;18338;53.240;8.798;2023-02-21T07:52:21;9.70;99.90
31765;DHT22;18338;53.240;8.798;2023-02-21T07:54:49;9.80;99.90
31765;DHT22;18338;53.240;8.798;2023-02-21T07:57:17;9.80;99.90
31765;DHT22;18338;53.240;8.798;2023-02-21T07:59:43;9.80;99.90
31765;DHT22;18338;53.240;8.798;2023-02-21T08:02:11;9.80;99.90
31765;DHT22;18338;53.240;8.798;2023-02-21T08:04:40;9.80;99.90
31765;DHT22;18338;53.240;8.798;2023-02-21T08:07:08;9.80;99.90
31765;DHT22;18338;53.240;8.798;2023-02-21T08:09:35;9.80;99.90
31765;DHT22;18338;53.240;8.798;2023-02-21T08:12:04;9.80;99.90
31765;DHT22;18338;53.240;8.798;2023-02-21T08:14:31;9.80;99.90
31765;DHT22;18338;53.240;8.798;2023-02-21T08:17:00;9.90;99.90
31765;DHT22;18338;53.240;8.798;2023-02-21T08:19:27;9.80;99.90
31765;DHT22;18338;53.240;8.798;2023-02-21T08:21:54;9.80;99.90
31765;DHT22;18338;53.240;8.798;2023-02-21T08:24:20;9.90;99.90
31765;DHT22;18338;53.240;8.798;2023-02-21T08:26:48;9.90;99.90
31765;DHT22;18338;53.240;8.798;2023-02-21T08:29:14;9.90;99.90
31765;DHT22;18338;53.240;8.798;2023-02-21T08:31:43;9.90;99.90
31765;DHT22;18338;53.240;8.798;2023-02-21T08:34:11;9.90;99.90
31765;DHT22;18338;53.240;8.798;2023-02-21T08:36:41;9.90;99.90
31765;DHT22;18338;53.240;8.798;2023-02-21T08:39:09;9.90;99.90
31765;DHT22;18338;53.240;8.798;2023-02-21T08:41:43;9.90;99.90
31765;DHT22;18338;53.240;8.798;2023-02-21T08:44:12;9.90;99.90
31765;DHT22;18338;53.240;8.798;2023-02-21T08:46:39;9.90;99.90
31765;DHT22;18338;53.240;8.798;2023-02-21T08:49:07;9.90;99.90
31765;DHT22;18338;53.240;8.798;2023-02-21T08:51:37;9.90;99.90
31765;DHT22;18338;53.240;8.798;2023-02-21T08:54:06;10.00;99.90
31765;DHT22;18338;53.240;8.798;2023-02-21T08:56:35;10.00;99.90
31765;DHT22;18338;53.240;8.798;2023-02-21T08:59:02;10.00;99.90
31765;DHT22;18338;53.240;8.798;2023-02-21T09:01:33;9.90;99.90
31765;DHT22;18338;53.240;8.798;2023-02-21T09:04:05;10.00;99.90
31765;DHT22;18338;53.240;8.798;2023-02-21T09:06:33;10.00;99.90
31765;DHT22;18338;53.240;8.798;2023-02-21T09:09:00;10.00;99.90
31765;DHT22;18338;53.240;8.798;2023-02-21T09:11:30;10.00;99.90
31765;DHT22;18338;53.240;8.798;2023-02-21T09:13:58;10.00;99.90
31765;DHT22;18338;53.240;8.798;2023-02-21T09:16:25;10.00;99.90
31765;DHT22;18338;53.240;8.798;2023-02-21T09:18:56;10.00;99.90
31765;DHT22;18338;53.240;8.798;2023-02-21T09:21:25;10.10;99.90
31765;DHT22;18338;53.240;8.798;2023-02-21T09:23:54;10.00;99.90
31765;DHT22;18338;53.240;8.798;2023-02-21T09:26:22;10.00;99.90
31765;DHT22;18338;53.240;8.798;2023-02-21T09:28:52;10.00;99.90
31765;DHT22;18338;53.240;8.798;2023-02-21T09:31:20;10.10;99.90
31765;DHT22;18338;53.240;8.798;2023-02-21T09:33:46;10.10;99.90
31765;DHT22;18338;53.240;8.798;2023-02-21T09:36:14;10.00;99.90
31765;DHT22;18338;53.240;8.798;2023-02-21T09:38:42;10.10;99.90
31765;DHT22;18338;53.240;8.798;2023-02-21T09:41:14;10.20;99.90
31765;DHT22;18338;53.240;8.798;2023-02-21T09:43:47;10.30;99.90
31765;DHT22;18338;53.240;8.798;2023-02-21T09:46:38;10.40;99.90
31765;DHT22;18338;53.240;8.798;2023-02-21T09:49:35;10.40;99.90
31765;DHT22;18338;53.240;8.798;2023-02-21T09:52:03;10.40;99.90
31765;DHT22;18338;53.240;8.798;2023-02-21T09:54:39;10.30;99.90
31765;DHT22;18338;53.240;8.798;2023-02-21T09:57:14;10.30;99.90
31765;DHT22;18338;53.240;8.798;2023-02-21T09:59:43;10.40;99.90
31765;DHT22;18338;53.240;8.798;2023-02-21T10:02:19;10.40;99.90
31765;DHT22;18338;53.240;8.798;2023-02-21T10:04:56;10.60;99.90
31765;DHT22;18338;53.240;8.798;2023-02-21T10:07:50;10.60;99.90
31765;DHT22;18338;53.240;8.798;2023-02-21T10:10:26;11.00;99.90
31765;DHT22;18338;53.240;8.798;2023-02-21T10:16:25;11.00;99.90
31765;DHT22;18338;53.240;8.798;2023-02-21T10:19:25;10.90;99.90
31765;DHT22;18338;53.240;8.798;2023-02-21T10:21:59;10.80;99.90
31765;DHT22;18338;53.240;8.798;2023-02-21T10:24:28;11.00;99.90
31765;DHT22;18338;53.240;8.798;2023-02-21T10:27:07;11.50;99.90
31765;DHT22;18338;53.240;8.798;2023-02-21T10:29:49;11.50;99.90
31765;DHT22;18338;53.240;8.798;2023-02-21T10:32:18;11.40;99.90
31765;DHT22;18338;53.240;8.798;2023-02-21T10:34:47;11.20;99.90
31765;DHT22;18338;53.240;8.798;2023-02-21T10:40:39;11.10;99.90
31765;DHT22;18338;53.240;8.798;2023-02-21T10:43:33;11.20;99.90
31765;DHT22;18338;53.240;8.798;2023-02-21T10:46:32;11.30;99.90
31765;DHT22;18338;53.240;8.798;2023-02-21T10:49:24;11.10;99.90
31765;DHT22;18338;53.240;8.798;2023-02-21T10:52:19;11.00;99.90
31765;DHT22;18338;53.240;8.798;2023-02-21T10:55:17;11.10;99.90
31765;DHT22;18338;53.240;8.798;2023-02-21T10:58:08;11.00;99.90
31765;DHT22;18338;53.240;8.798;2023-02-21T11:00:48;11.20;99.90
31765;DHT22;18338;53.240;8.798;2023-02-21T11:05:55;11.10;99.90
31765;DHT22;18338;53.240;8.798;2023-02-21T11:08:39;11.00;99.90
31765;DHT22;18338;53.240;8.798;2023-02-21T11:11:06;11.00;99.90
31765;DHT22;18338;53.240;8.798;2023-02-21T11:13:34;10.90;99.90
31765;DHT22;18338;53.240;8.798;2023-02-21T11:16:22;10.90;99.90
31765;DHT22;18338;53.240;8.798;2023-02-21T11:19:05;11.00;99.90
31765;DHT22;18338;53.240;8.798;2023-02-21T11:21:33;10.90;99.90
31765;DHT22;18338;53.240;8.798;2023-02-21T11:24:04;10.90;99.90
31765;DHT22;18338;53.240;8.798;2023-02-21T11:29:10;11.00;99.90
31765;DHT22;18338;53.240;8.798;2023-02-21T11:31:37;11.20;99.90
31765;DHT22;18338;53.240;8.798;2023-02-21T11:34:09;11.30;99.90
31765;DHT22;18338;53.240;8.798;2023-02-21T11:36:42;11.30;99.90
31765;DHT22;18338;53.240;8.798;2023-02-21T11:39:22;11.50;99.90
31765;DHT22;18338;53.240;8.798;2023-02-21T11:41:56;11.40;99.90
31765;DHT22;18338;53.240;8.798;2023-02-21T11:49:52;11.60;99.90
31765;DHT22;18338;53.240;8.798;2023-02-21T11:52:28;11.50;99.90
31765;DHT22;18338;53.240;8.798;2023-02-21T11:55:12;11.30;99.90
31765;DHT22;18338;53.240;8.798;2023-02-21T11:58:12;11.00;99.90
31765;DHT22;18338;53.240;8.798;2023-02-21T12:00:55;10.90;99.90
31765;DHT22;18338;53.240;8.798;2023-02-21T12:09:30;11.00;99.90
31765;DHT22;18338;53.240;8.798;2023-02-21T12:12:10;10.90;99.90
31765;DHT22;18338;53.240;8.798;2023-02-21T12:17:39;10.80;99.90
31765;DHT22;18338;53.240;8.798;2023-02-21T12:26:24;10.90;99.90
31765;DHT22;18338;53.240;8.798;2023-02-21T12:40:32;11.00;99.90
31765;DHT22;18338;53.240;8.798;2023-02-21T12:46:27;11.00;99.90
31765;DHT22;18338;53.240;8.798;2023-02-21T12:49:09;11.00;99.90
31765;DHT22;18338;53.240;8.798;2023-02-21T12:51:45;11.00;99.90
31765;DHT22;18338;53.240;8.798;2023-02-21T12:54:30;11.00;99.90
31765;DHT22;18338;53.240;8.798;2023-02-21T12:57:12;10.80;99.90
31765;DHT22;18338;53.240;8.798;2023-02-21T12:59:51;10.70;99.90
31765;DHT22;18338;53.240;8.798;2023-02-21T13:03:29;10.70;99.90
31765;DHT22;18338;53.240;8.798;2023-02-21T13:05:37;10.60;99.90
31765;DHT22;18338;53.240;8.798;2023-02-21T13:08:18;10.60;99.90
31765;DHT22;18338;53.240;8.798;2023-02-21T13:14:12;10.60;99.90
31765;DHT22;18338;53.240;8.798;2023-02-21T13:16:41;10.60;99.90
31765;DHT22;18338;53.240;8.798;2023-02-21T13:19:10;10.70;99.90
31765;DHT22;18338;53.240;8.798;2023-02-21T13:24:51;10.80;99.90
31765;DHT22;18338;53.240;8.798;2023-02-21T13:32:54;11.00;99.90
31765;DHT22;18338;53.240;8.798;2023-02-21T13:35:35;11.00;99.90
31765;DHT22;18338;53.240;8.798;2023-02-21T13:38:08;11.10;99.90
31765;DHT22;18338;53.240;8.798;2023-02-21T13:40:53;11.20;99.90
31765;DHT22;18338;53.240;8.798;2023-02-21T13:43:27;11.30;99.90
31765;DHT22;18338;53.240;8.798;2023-02-21T14:10:47;11.40;99.90
31765;DHT22;18338;53.240;8.798;2023-02-21T14:13:39;11.50;99.90
31765;DHT22;18338;53.240;8.798;2023-02-21T14:19:00;11.70;99.90
31765;DHT22;18338;53.240;8.798;2023-02-21T14:21:46;11.70;99.90
31765;DHT22;18338;53.240;8.798;2023-02-21T14:24:20;11.70;99.90
31765;DHT22;18338;53.240;8.798;2023-02-21T14:37:36;11.90;99.90
31765;DHT22;18338;53.240;8.798;2023-02-21T14:54:55;11.80;99.90
31765;DHT22;18338;53.240;8.798;2023-02-21T15:00:55;11.70;99.90
31765;DHT22;18338;53.240;8.798;2023-02-21T15:03:53;11.60;99.90
31765;DHT22;18338;53.240;8.798;2023-02-21T15:06:27;11.60;99.90
31765;DHT22;18338;53.240;8.798;2023-02-21T15:08:55;11.60;99.90
31765;DHT22;18338;53.240;8.798;2023-02-21T15:11:28;11.60;99.90
31765;DHT22;18338;53.240;8.798;2023-02-21T15:14:28;11.60;99.90
31765;DHT22;18338;53.240;8.798;2023-02-21T15:17:16;11.60;99.90
31765;DHT22;18338;53.240;8.798;2023-02-21T15:20:11;11.60;99.90
31765;DHT22;18338;53.240;8.798;2023-02-21T15:23:15;11.60;99.90
31765;DHT22;18338;53.240;8.798;2023-02-21T15:29:11;11.50;99.90
31765;DHT22;18338;53.240;8.798;2023-02-21T15:31:50;11.50;99.90
31765;DHT22;18338;53.240;8.798;2023-02-21T15:34:24;11.40;99.90
31765;DHT22;18338;53.240;8.798;2023-02-21T15:37:14;11.40;99.90
31765;DHT22;18338;53.240;8.798;2023-02-21T15:39:48;11.30;99.90
31765;DHT22;18338;53.240;8.798;2023-02-21T15:42:19;11.30;99.90
31765;DHT22;18338;53.240;8.798;2023-02-21T15:45:11;11.30;99.90
31765;DHT22;18338;53.240;8.798;2023-02-21T15:47:54;11.30;99.90
31765;DHT22;18338;53.240;8.798;2023-02-21T15:54:19;11.20;99.90
31765;DHT22;18338;53.240;8.798;2023-02-21T15:57:29;11.10;99.90
31765;DHT22;18338;53.240;8.798;2023-02-21T16:04:50;11.10;99.90
31765;DHT22;18338;53.240;8.798;2023-02-21T16:14:47;11.00;99.90
31765;DHT22;18338;53.240;8.798;2023-02-21T16:17:28;10.90;99.90
31765;DHT22;18338;53.240;8.798;2023-02-21T16:20:17;10.90;99.90
31765;DHT22;18338;53.240;8.798;2023-02-21T16:22:48;10.90;99.90
31765;DHT22;18338;53.240;8.798;2023-02-21T16:28:36;10.80;99.90
31765;DHT22;18338;53.240;8.798;2023-02-21T16:31:13;10.80;99.90
31765;DHT22;18338;53.240;8.798;2023-02-21T16:33:40;10.70;99.90
31765;DHT22;18338;53.240;8.798;2023-02-21T16:36:16;10.70;99.90
31765;DHT22;18338;53.240;8.798;2023-02-21T16:38:44;10.70;99.90
31765;DHT22;18338;53.240;8.798;2023-02-21T16:41:14;10.70;99.90
31765;DHT22;18338;53.240;8.798;2023-02-21T16:43:42;10.70;99.90
31765;DHT22;18338;53.240;8.798;2023-02-21T16:46:08;10.60;99.90
31765;DHT22;18338;53.240;8.798;2023-02-21T16:48:35;10.60;99.90
31765;DHT22;18338;53.240;8.798;2023-02-21T16:51:07;10.60;99.90
31765;DHT22;18338;53.240;8.798;2023-02-21T16:53:35;10.60;99.90
31765;DHT22;18338;53.240;8.798;2023-02-21T16:56:02;10.60;99.90
31765;DHT22;18338;53.240;8.798;2023-02-21T16:58:37;10.60;99.90
31765;DHT22;18338;53.240;8.798;2023-02-21T17:01:13;10.60;99.90
31765;DHT22;18338;53.240;8.798;2023-02-21T17:03:41;10.60;99.90
31765;DHT22;18338;53.240;8.798;2023-02-21T17:06:16;10.50;99.90
31765;DHT22;18338;53.240;8.798;2023-02-21T17:08:44;10.50;99.90
31765;DHT22;18338;53.240;8.798;2023-02-21T17:11:11;10.60;99.90
31765;DHT22;18338;53.240;8.798;2023-02-21T17:13:38;10.50;99.90
31765;DHT22;18338;53.240;8.798;2023-02-21T17:16:05;10.50;99.90
31765;DHT22;18338;53.240;8.798;2023-02-21T17:18:32;10.50;99.90
31765;DHT22;18338;53.240;8.798;2023-02-21T17:20:59;10.50;99.90
31765;DHT22;18338;53.240;8.798;2023-02-21T17:23:26;10.50;99.90
31765;DHT22;18338;53.240;8.798;2023-02-21T17:25:53;10.50;99.90
31765;DHT22;18338;53.240;8.798;2023-02-21T17:28:20;10.50;99.90
31765;DHT22;18338;53.240;8.798;2023-02-21T17:30:47;10.50;99.90
31765;DHT22;18338;53.240;8.798;2023-02-21T17:33:14;10.50;99.90
31765;DHT22;18338;53.240;8.798;2023-02-21T17:35:41;10.50;99.90
31765;DHT22;18338;53.240;8.798;2023-02-21T17:38:10;10.50;99.90
31765;DHT22;18338;53.240;8.798;2023-02-21T17:40:37;10.50;99.90
31765;DHT22;18338;53.240;8.798;2023-02-21T17:43:04;10.50;99.90
31765;DHT22;18338;53.240;8.798;2023-02-21T17:45:34;10.50;99.90
31765;DHT22;18338;53.240;8.798;2023-02-21T17:48:04;10.50;99.90
31765;DHT22;18338;53.240;8.798;2023-02-21T17:50:31;10.50;99.90
31765;DHT22;18338;53.240;8.798;2023-02-21T17:52:59;10.50;99.90
31765;DHT22;18338;53.240;8.798;2023-02-21T17:55:26;10.50;99.90
31765;DHT22;18338;53.240;8.798;2023-02-21T17:57:55;10.50;99.90
31765;DHT22;18338;53.240;8.798;2023-02-21T18:00:25;10.50;99.90
31765;DHT22;18338;53.240;8.798;2023-02-21T18:02:54;10.50;99.90
31765;DHT22;18338;53.240;8.798;2023-02-21T18:05:21;10.50;99.90
31765;DHT22;18338;53.240;8.798;2023-02-21T18:07:50;10.50;99.90
31765;DHT22;18338;53.240;8.798;2023-02-21T18:10:19;10.50;99.90
31765;DHT22;18338;53.240;8.798;2023-02-21T18:12:46;10.40;99.90
31765;DHT22;18338;53.240;8.798;2023-02-21T18:15:17;10.50;99.90
31765;DHT22;18338;53.240;8.798;2023-02-21T18:17:44;10.40;99.90
31765;DHT22;18338;53.240;8.798;2023-02-21T18:20:11;10.50;99.90
31765;DHT22;18338;53.240;8.798;2023-02-21T18:22:40;10.40;99.90
31765;DHT22;18338;53.240;8.798;2023-02-21T18:25:07;10.40;99.90
31765;DHT22;18338;53.240;8.798;2023-02-21T18:27:35;10.40;99.90
31765;DHT22;18338;53.240;8.798;2023-02-21T18:30:02;10.40;99.90
31765;DHT22;18338;53.240;8.798;2023-02-21T18:32:29;10.30;99.90
31765;DHT22;18338;53.240;8.798;2023-02-21T18:34:57;10.40;99.90
31765;DHT22;18338;53.240;8.798;2023-02-21T18:37:25;10.40;99.90
31765;DHT22;18338;53.240;8.798;2023-02-21T18:39:55;10.30;99.90
31765;DHT22;18338;53.240;8.798;2023-02-21T18:42:22;10.30;99.90
31765;DHT22;18338;53.240;8.798;2023-02-21T18:44:53;10.30;99.90
31765;DHT22;18338;53.240;8.798;2023-02-21T18:47:24;10.30;99.90
31765;DHT22;18338;53.240;8.798;2023-02-21T18:49:52;10.20;99.90
31765;DHT22;18338;53.240;8.798;2023-02-21T18:52:21;10.20;99.90
31765;DHT22;18338;53.240;8.798;2023-02-21T18:54:49;10.20;99.90
31765;DHT22;18338;53.240;8.798;2023-02-21T18:57:18;10.20;99.90
31765;DHT22;18338;53.240;8.798;2023-02-21T18:59:45;10.20;99.90
31765;DHT22;18338;53.240;8.798;2023-02-21T19:02:15;10.20;99.90